Logo AVAMET
Benvolgut visitant, si us plau, ingressa Recuperar contrasenya
AVAMET paisatges

Torrevella centre

Dades diàries. Acumulats / Últims 30 dies disponibles

Data Temperatura (°C) Humitat rel. (%) Pressió rel. (hPa) Vent (km/h) Precipitació
Mínima Mitjana Màxima Amplitud
tèrmica
Mínima Mitjana Màxima Mínima Mitjana Màxima Predom. Mitjana Ràfega
màxima
Total
(mm)
Índex-n
Mínima Mitjana Màxima Mínima Mitjana Màxima n
0 a 1
P0 max
mm 5'
Dades mensuals acumulades fins l'últim dia disponible
07/2020 23,3 23,9 24,7 26,6 28,5 29,4 31,7 8,4 45 76 91 1.011 1.017 1.023   31,0 0,0
Dades anuals acumulades fins l'últim dia disponible
2020 7,1 15,8 24,7 19,0 12,7 22,1 31,9 24,8 23 73 95 1.004 1.019 1.037   0,6 71,0 129,2
Últims 30 dies disponibles
07-07-2020 23,7     27,7     31,7 8,0 45 67 89 1.015 1.016 1.017 18,0 0,0
06-07-2020 23,4     26,0     28,6 5,2 59 73 86 1.016 1.018 1.020 18,0 0,0
05-07-2020 23,3     26,6     29,8 6,5 61 73 85 1.019 1.021 1.022 16,0 0,0
04-07-2020 23,8     26,4     29,1 5,3 69 79 89 1.021 1.022 1.023 19,0 0,0
03-07-2020 24,7     26,8     28,8 4,1 68 80 91 1.015 1.019 1.022 21,0 0,0
02-07-2020 24,3     26,4     28,5 4,2 77 84 91 1.012 1.014 1.015 23,0 0,0
01-07-2020 23,9     26,6     29,2 5,3 63 75 86 1.011 1.013 1.014 31,0 0,0
30-06-2020 23,6     25,7     27,8 4,2 74 83 91 1.012 1.014 1.016 32,0 0,0
29-06-2020 22,9     25,9     28,9 6,0 70 81 92 1.015 1.017 1.019 18,0 0,0
28-06-2020 22,7     25,9     29,1 6,4 69 81 92 1.017 1.019 1.020 16,0 0,0
27-06-2020 23,0     25,6     28,2 5,2 73 81 89 1.015 1.016 1.017 21,0 0,0
26-06-2020 23,3     26,4     29,4 6,1 65 76 87 1.013 1.015 1.017 21,0 0,0
25-06-2020 21,8     25,2     28,7 6,9 47 66 84 1.014 1.016 1.018 31,0 0,0
24-06-2020 21,9     24,6     27,2 5,3 60 73 85 1.016 1.018 1.020 29,0 0,0
23-06-2020 23,0     25,1     27,1 4,1 62 71 79 1.017 1.019 1.021 27,0 0,0
22-06-2020 22,4     25,1     27,7 5,3 57 74 90 1.020 1.022 1.024 23,0 0,0
21-06-2020 21,4     24,9     28,4 7,0 66 78 89 1.021 1.022 1.023 13,0 0,0
20-06-2020 21,3     23,7     26,1 4,8 70 79 88 1.021 1.022 1.023 19,0 0,0
19-06-2020 22,2     25,1     27,9 5,7 62 75 88 1.016 1.019 1.022 19,0 0,0
18-06-2020 21,3     23,4     25,5 4,2 74 82 90 1.014 1.016 1.017 19,0 0,0
17-06-2020 20,4     23,2     26,0 5,6 75 83 91 1.016 1.017 1.018 8,0 0,0
16-06-2020 19,7     22,9     26,0 6,3 65 77 88 1.015 1.017 1.019 23,0 0,0
15-06-2020 19,6     23,2     26,8 7,2 56 72 87 1.020 1.021 1.021 18,0 0,0
14-06-2020 18,9     22,1     25,3 6,4 53 70 87 1.017 1.019 1.020 19,0 0,0
13-06-2020 20,6     23,9     27,2 6,6 36 56 75 1.010 1.014 1.018 31,0 0,0
12-06-2020 21,9     23,8     25,7 3,8 43 59 74 1.005 1.008 1.010 44,0 0,0
11-06-2020 19,6     22,9     26,1 6,5 53 71 89 1.004 1.010 1.015 37,0 0,0
10-06-2020 19,0     21,6     24,3 5,3 69 78 87 1.014 1.016 1.018 23,0 0,0
09-06-2020 17,7     21,4     25,1 7,4 61 75 88 1.017 1.018 1.019 21,0 0,0
08-06-2020 18,4     21,8     25,1 6,7 56 72 88 1.010 1.014 1.018 39,0 5,6
Últims 13 mesos disponibles
06/2020 17,7 21,0 23,6 24,1 24,3 27,2 31,9 14,2 55 73 83 1.008 1.016 1.022 44,0 6,6
05/2020 13,2 18,6 21,0 21,6 20,3 24,7 29,3 16,1 58 72 84 1.008 1.018 1.028 42,0
04/2020 11,4 14,8 17,5 17,8 17,4 20,6 26,5 15,1 58 75 86 1.008 1.017 1.027 42,0 28,4
03/2020 9,7 13,2 16,5 16,4 13,2 19,6 25,9 16,2 41 70 91 1.011 1.019 1.027 56,0
02/2020 9,0 12,1 15,7 15,8 12,8 19,5 27,5 18,5 50 72 93 1.017 1.027 1.035 34,0 1,6
01/2020 7,1 9,4 13,2 13,0 12,7 16,7 20,1 13,0 59 74 86 1.016 1.026 1.034 ESE 0,0 71,0 63,4
12/2019 8,6 12,2 16,7 14,9 13,5 18,8 25,0 16,4 49 74 90 1.007 1.021 1.034 E 3,0 61,2 77,8
11/2019 9,2 13,5 21,2 16,4 16,3 20,7 29,1 19,9 48 61 88 1.002 1.013 1.022 S 2,6 46,7 6,0
10/2019 12,4 18,3 23,2 21,3 17,2 25,4 30,7 18,3 58 75 89 1.010 1.018 1.023 S 1,6 30,6 37,8
09/2019 17,0 22,0 24,9 24,8 22,8 28,1 31,3 14,3 53 78 90 1.011 1.018 1.023 E 3,7 49,9 129,4
08/2019 21,8 24,4 26,7 27,3 27,3 30,7 36,9 15,1 66 77 84 1.011 1.016 1.020 ESE 2,8 38,6 20,4
05/2019 13,8 16,6 21,3 19,4 19,9 23,0 27,9 14,1 68 75 82 1.013 1.016 1.019 SSE 3,0 35,4 0,0
04/2019 10,6 13,5 15,7 16,5 15,9 20,4 26,1 15,5 54 72 92 1.002 1.014 1.027 SSE 3,3 56,3 132,6
Tots els anys disponibles
2018 4,7 16,6 27,8 19,8 11,4 23,3 35,4 30,7 43 70 92 996 1.017 1.035 SE 0,4 68,0 307,2
2017 2,2 16,5 27,7 19,8 7,3 23,2 34,2 32,0 41 70 86 1.002 1.019 1.038 S 0,0 69,0 206,2
2016 5,7 16,5 26,0 19,8 13,3 23,2 37,4 31,7 35 70 88 510 1.015 1.036 61,0 242,0
2015 4,6 16,6 23,8 20,1 21,9 23,5 38,2 33,6 58 69 75 1.014 1.018 1.030 84,0 169,8
2014 5,3 17,0 26,6 20,4 12,3 23,8 35,1 29,8 32 67 90 992 1.015 1.033 58,0 228,1
2013 5,5 15,9 20,4 19,4 20,6 22,9 34,4 28,9 55 66 73 1.008 1.016 1.024 66,0 252,6
2012 312,4
2011 208,9
2010 3,2 16,0 26,9 19,2 9,7 22,3 37,7 34,5 37 66 91 253,0 282,8
2009 4,1 17,3 26,7 20,2 8,8 24,0 38,9 34,8 3,6 253,0 209,2
2008 5,4 16,2 18,9 22,6 37,9 32,5 39 71 93 1.001 1.022 1.032 5,8 253,0 334,8
2007 353,3
Temperatura (°C)
Humitat relativa (%)
Velocitat del vent i ràfega màxima (km/h)
Direcció del vent (°)
Pressió (hPa)
Precipitació (mm)
Nota sobre les dades: s'avisa a l'usuari de la provisionalitat i no oficialitat d'aquestes dades
Logo AVAMET blanc
Web allotjada a Sollutia
Llicència de Creative CommonsLa web d'AVAMET i els seus continguts estan subjectes a una llicència de
Reconeixement - No Comercial - Compartir igual
Últimes estacions: Càlig (Ajuntament Soci), Quesa - Hotel La Rocha (Soci), Agres - Les Eres (Soci), la Vilavella - Ptda Forns (Soci), Miramar - Platja (Inforatge), San Fulgencio - Centre & San Fulgencio - Urb. La Marina (MeteOrihuela), Ontinyent - els Gínjols (Soci), Orba (Ajuntament Soci), Xixona - Monnegre de Baix (Soci) - - -